createdAt,value
2022-09-18T00:01:31.936Z,98617.97
2022-09-18T00:04:05.181Z,98620.66
2022-09-18T00:06:37.003Z,98615.50
2022-09-18T00:09:08.238Z,98613.47
2022-09-18T00:11:38.246Z,98604.59
2022-09-18T00:14:07.477Z,98608.00
2022-09-18T00:16:34.640Z,98601.75
2022-09-18T00:19:01.895Z,98609.59
2022-09-18T00:21:29.711Z,98592.81
2022-09-18T00:23:59.581Z,98597.41
2022-09-18T00:26:26.896Z,98611.66
2022-09-18T00:28:54.989Z,98600.16
2022-09-18T00:31:30.926Z,98596.31
2022-09-18T00:33:59.422Z,98598.19
2022-09-18T00:36:26.796Z,98609.78
2022-09-18T00:38:56.641Z,98592.03
2022-09-18T00:41:29.951Z,98601.94
2022-09-18T00:44:28.493Z,98588.34
2022-09-18T00:47:03.465Z,98606.16
2022-09-18T00:49:30.548Z,98594.78
2022-09-18T00:51:59.148Z,98599.19
2022-09-18T00:54:31.646Z,98593.75
2022-09-18T00:57:02.337Z,98597.19
2022-09-18T00:59:32.195Z,98595.34
2022-09-18T01:02:00.288Z,98606.22
2022-09-18T01:04:29.344Z,98606.53
2022-09-18T01:07:01.573Z,98602.53
2022-09-18T01:09:54.469Z,98607.94
2022-09-18T01:12:39.588Z,98594.59
2022-09-18T01:15:09.317Z,98600.63
2022-09-18T01:17:35.902Z,98602.84
2022-09-18T01:20:20.948Z,98602.53
2022-09-18T01:22:54.573Z,98593.34
2022-09-18T01:25:42.969Z,98596.00
2022-09-18T01:28:38.459Z,98595.53
2022-09-18T01:31:13.443Z,98597.41
2022-09-18T01:33:52.566Z,98585.06
2022-09-18T01:36:24.158Z,98578.91
2022-09-18T01:39:01.912Z,98597.50
2022-09-18T01:41:30.219Z,98598.47
2022-09-18T01:44:03.693Z,98588.19
2022-09-18T01:46:30.758Z,98590.94
2022-09-18T01:49:04.439Z,98589.13
2022-09-18T01:51:47.246Z,98583.66
2022-09-18T01:54:22.869Z,98582.41
2022-09-18T01:56:57.341Z,98583.13
2022-09-18T01:59:36.725Z,98579.69
2022-09-18T02:02:14.860Z,98576.19
2022-09-18T02:04:44.527Z,98567.59
2022-09-18T02:07:35.736Z,98567.41
2022-09-18T02:10:05.771Z,98562.81
2022-09-18T02:12:36.465Z,98565.69
2022-09-18T02:15:10.447Z,98572.94
2022-09-18T02:17:56.392Z,98576.66
2022-09-18T02:20:30.472Z,98572.88
2022-09-18T02:23:03.570Z,98566.91
2022-09-18T02:25:36.983Z,98568.50
2022-09-18T02:28:06.873Z,98574.91
2022-09-18T02:30:34.524Z,98575.09
2022-09-18T02:33:01.331Z,98574.94
2022-09-18T02:35:42.873Z,98561.72
2022-09-18T02:38:29.515Z,98574.34
2022-09-18T02:41:07.911Z,98561.75
2022-09-18T02:44:01.957Z,98567.22
2022-09-18T02:46:55.268Z,98564.81
2022-09-18T02:49:54.523Z,98569.69
2022-09-18T02:52:29.779Z,98566.38
2022-09-18T02:55:08.337Z,98576.19
2022-09-18T02:57:44.041Z,98570.91
2022-09-18T03:00:16.927Z,98589.38
2022-09-18T03:02:45.961Z,98575.22
2022-09-18T03:05:14.628Z,98575.31
2022-09-18T03:08:01.003Z,98564.69
2022-09-18T03:10:29.210Z,98572.75
2022-09-18T03:12:56.988Z,98575.31
2022-09-18T03:15:23.733Z,98570.69
2022-09-18T03:17:51.272Z,98562.50
2022-09-18T03:20:18.746Z,98557.94
2022-09-18T03:22:46.288Z,98561.25
2022-09-18T03:25:14.489Z,98562.84
2022-09-18T03:27:43.840Z,98560.47
2022-09-18T03:30:15.324Z,98561.25
2022-09-18T03:32:42.592Z,98562.13
2022-09-18T03:35:10.707Z,98557.50
2022-09-18T03:37:42.342Z,98568.31
2022-09-18T03:40:11.949Z,98567.19
2022-09-18T03:42:46.671Z,98564.72
2022-09-18T03:45:18.782Z,98566.47
2022-09-18T03:47:46.950Z,98562.31
2022-09-18T03:50:16.352Z,98559.78
2022-09-18T03:52:50.434Z,98562.13
2022-09-18T03:55:38.803Z,98567.59
2022-09-18T03:58:22.458Z,98566.69
2022-09-18T04:01:15.966Z,98574.16
2022-09-18T04:04:04.321Z,98561.47
2022-09-18T04:06:55.443Z,98570.09
2022-09-18T04:09:40.791Z,98559.97
2022-09-18T04:12:07.669Z,98563.72
2022-09-18T04:14:34.723Z,98565.47
2022-09-18T04:17:01.497Z,98569.13
2022-09-18T04:19:29.816Z,98577.19
2022-09-18T04:21:57.630Z,98577.97
2022-09-18T04:24:26.095Z,98572.81
2022-09-18T04:26:52.897Z,98575.50
2022-09-18T04:29:22.844Z,98575.47
2022-09-18T04:31:50.879Z,98578.22
2022-09-18T04:34:25.586Z,98578.31
2022-09-18T04:36:53.441Z,98568.84
2022-09-18T04:39:20.375Z,98562.28
2022-09-18T04:41:47.685Z,98574.16
2022-09-18T04:44:14.524Z,98570.50
2022-09-18T04:46:43.409Z,98569.13
2022-09-18T04:49:10.773Z,98563.84
2022-09-18T04:51:38.332Z,98565.47
2022-09-18T04:54:05.860Z,98568.25
2022-09-18T04:56:36.298Z,98564.63
2022-09-18T04:59:03.609Z,98570.63
2022-09-18T05:01:30.546Z,98569.00
2022-09-18T05:03:59.566Z,98573.72
2022-09-18T05:06:37.727Z,98572.09
2022-09-18T05:09:04.491Z,98568.63
2022-09-18T05:11:31.201Z,98565.25
2022-09-18T05:13:58.147Z,98574.50
2022-09-18T05:16:27.664Z,98579.13
2022-09-18T05:19:13.003Z,98579.09
2022-09-18T05:21:39.962Z,98573.41
2022-09-18T05:24:14.017Z,98580.59
2022-09-18T05:26:41.589Z,98583.44
2022-09-18T05:29:08.468Z,98582.50
2022-09-18T05:31:35.267Z,98584.28
2022-09-18T05:34:02.248Z,98588.81
2022-09-18T05:36:28.951Z,98596.75
2022-09-18T05:38:55.713Z,98587.97
2022-09-18T05:41:23.814Z,98596.47
2022-09-18T05:43:51.012Z,98596.38
2022-09-18T05:46:17.851Z,98605.66
2022-09-18T05:48:50.498Z,98593.53
2022-09-18T05:51:18.746Z,98605.63
2022-09-18T05:53:48.513Z,98592.91
2022-09-18T05:56:30.523Z,98595.97
2022-09-18T05:58:57.219Z,98600.16
2022-09-18T06:01:24.156Z,98594.34
2022-09-18T06:04:09.264Z,98589.22
2022-09-18T06:06:51.295Z,98588.69
2022-09-18T06:09:18.505Z,98584.69
2022-09-18T06:11:45.191Z,98590.34
2022-09-18T06:14:11.876Z,98581.28
2022-09-18T06:16:42.100Z,98587.16
2022-09-18T06:19:10.264Z,98588.97
2022-09-18T06:21:37.298Z,98596.03
2022-09-18T06:24:06.474Z,98596.03
2022-09-18T06:26:39.444Z,98599.44
2022-09-18T06:29:06.611Z,98591.34
2022-09-18T06:31:44.415Z,98592.78
2022-09-18T06:34:15.219Z,98597.78
2022-09-18T06:36:44.558Z,98602.28
2022-09-18T06:39:24.725Z,98599.09
2022-09-18T06:41:56.112Z,98585.13
2022-09-18T06:44:47.099Z,98572.59
2022-09-18T06:47:15.336Z,98569.56
2022-09-18T06:49:45.224Z,98553.78
2022-09-18T06:52:11.890Z,98546.03
2022-09-18T06:54:39.692Z,98536.47
2022-09-18T06:57:10.263Z,98542.56
2022-09-18T06:59:38.280Z,98543.94
2022-09-18T07:02:17.271Z,98550.84
2022-09-18T07:05:14.556Z,98545.84
2022-09-18T07:07:45.604Z,98548.03
2022-09-18T07:10:12.386Z,98551.03
2022-09-18T07:12:48.384Z,98547.03
2022-09-18T07:15:19.146Z,98552.00
2022-09-18T07:17:46.145Z,98545.22
2022-09-18T07:20:15.777Z,98543.34
2022-09-18T07:22:47.394Z,98547.00
2022-09-18T07:25:14.957Z,98543.69
2022-09-18T07:27:43.440Z,98553.00
2022-09-18T07:30:11.907Z,98537.06
2022-09-18T07:32:38.605Z,98536.81
2022-09-18T07:35:11.970Z,98542.16
2022-09-18T07:37:39.259Z,98537.75
2022-09-18T07:40:19.694Z,98549.31
2022-09-18T07:43:13.470Z,98564.22
2022-09-18T07:45:49.010Z,98557.16
2022-09-18T07:48:16.306Z,98572.22
2022-09-18T07:50:47.072Z,98579.97
2022-09-18T07:53:15.142Z,98567.16
2022-09-18T07:55:47.082Z,98574.66
2022-09-18T07:58:14.648Z,98565.03
2022-09-18T08:01:02.381Z,98566.25
2022-09-18T08:03:30.703Z,98559.88
2022-09-18T08:06:08.621Z,98555.41
2022-09-18T08:08:38.853Z,98551.88
2022-09-18T08:11:34.498Z,98556.09
2022-09-18T08:14:23.404Z,98552.75
2022-09-18T08:17:08.356Z,98566.72
2022-09-18T08:19:58.452Z,98554.78
2022-09-18T08:22:45.929Z,98558.19
2022-09-18T08:25:13.896Z,98558.53
2022-09-18T08:27:44.449Z,98546.72
2022-09-18T08:30:13.752Z,98551.31
2022-09-18T08:32:41.793Z,98542.59
2022-09-18T08:35:10.981Z,98544.75
2022-09-18T08:37:38.331Z,98548.97
2022-09-18T08:40:42.870Z,98554.19
2022-09-18T08:43:29.649Z,98557.81
2022-09-18T08:46:08.648Z,98568.06
2022-09-18T08:48:45.484Z,98566.44
2022-09-18T08:51:21.435Z,98571.56
2022-09-18T08:53:54.488Z,98577.69
2022-09-18T08:56:25.972Z,98574.31
2022-09-18T08:59:55.055Z,98583.34
2022-09-18T09:02:31.013Z,98593.97
2022-09-18T09:05:03.720Z,98584.38
2022-09-18T09:07:31.737Z,98591.84
2022-09-18T09:12:44.567Z,98602.69
2022-09-18T09:15:53.417Z,98589.88
2022-09-18T09:18:42.554Z,98592.03
2022-09-18T09:21:21.726Z,98590.41
2022-09-18T09:24:21.049Z,98587.25
2022-09-18T09:27:17.716Z,98582.03
2022-09-18T09:30:20.582Z,98567.28
2022-09-18T09:33:19.496Z,98564.28
2022-09-18T09:36:11.785Z,98561.88
2022-09-18T09:39:06.214Z,98560.19
2022-09-18T09:41:45.037Z,98552.56
2022-09-18T09:44:14.686Z,98560.81
2022-09-18T09:47:19.236Z,98556.78
2022-09-18T09:50:15.041Z,98556.72
2022-09-18T09:52:46.551Z,98542.44
2022-09-18T09:55:26.487Z,98543.50
2022-09-18T09:58:04.504Z,98542.09
2022-09-18T10:00:44.375Z,98557.81
2022-09-18T10:03:42.698Z,98551.66
2022-09-18T10:06:17.649Z,98554.38
2022-09-18T10:08:59.555Z,98546.25
2022-09-18T10:11:26.983Z,98531.16
2022-09-18T10:14:12.792Z,98537.59
2022-09-18T10:16:47.334Z,98542.91
2022-09-18T10:19:17.838Z,98532.88
2022-09-18T10:21:45.671Z,98543.06
2022-09-18T10:24:42.679Z,98548.84
2022-09-18T10:27:15.014Z,98551.38
2022-09-18T10:29:43.227Z,98545.28
2022-09-18T10:32:32.436Z,98530.56
2022-09-18T10:35:00.946Z,98544.69
2022-09-18T10:37:30.570Z,98534.13
2022-09-18T10:40:02.790Z,98525.25
2022-09-18T10:42:34.850Z,98533.78
2022-09-18T10:45:22.758Z,98528.00
2022-09-18T10:48:06.054Z,98526.22
2022-09-18T10:50:34.632Z,98541.25
2022-09-18T10:53:24.190Z,98537.66
2022-09-18T10:55:55.825Z,98531.63
2022-09-18T10:58:32.546Z,98533.63
2022-09-18T11:01:07.941Z,98535.16
2022-09-18T11:03:42.309Z,98537.84
2022-09-18T11:06:20.456Z,98546.78
2022-09-18T11:08:50.643Z,98547.44
2022-09-18T11:11:30.454Z,98539.81
2022-09-18T11:14:03.703Z,98548.00
2022-09-18T11:16:43.666Z,98539.59
2022-09-18T11:19:34.004Z,98552.00
2022-09-18T11:22:27.270Z,98553.19
2022-09-18T11:25:27.186Z,98541.22
2022-09-18T11:28:02.601Z,98545.22
2022-09-18T11:30:38.638Z,98543.31
2022-09-18T11:33:24.878Z,98535.00
2022-09-18T11:36:03.027Z,98538.06
2022-09-18T11:38:32.603Z,98538.72
2022-09-18T11:41:02.915Z,98537.75
2022-09-18T11:43:39.668Z,98541.13
2022-09-18T11:46:52.800Z,98542.19
2022-09-18T11:49:23.922Z,98537.91
2022-09-18T11:52:01.298Z,98534.66
2022-09-18T11:54:43.927Z,98529.94
2022-09-18T11:57:19.602Z,98522.28
2022-09-18T11:59:57.421Z,98517.63
2022-09-18T12:02:42.225Z,98501.19
2022-09-18T12:05:29.289Z,98507.88
2022-09-18T12:08:20.226Z,98491.41
2022-09-18T12:11:17.528Z,98480.75
2022-09-18T12:13:47.990Z,98485.25
2022-09-18T12:16:24.803Z,98477.81
2022-09-18T12:19:07.743Z,98484.63
2022-09-18T12:21:45.184Z,98479.31
2022-09-18T12:24:15.700Z,98492.34
2022-09-18T12:26:56.057Z,98490.13
2022-09-18T12:29:32.075Z,98484.72
2022-09-18T12:32:20.624Z,98496.75
2022-09-18T12:35:01.709Z,98481.84
2022-09-18T12:37:53.520Z,98488.69
2022-09-18T12:40:34.273Z,98478.69
2022-09-18T12:43:13.229Z,98478.31
2022-09-18T12:45:53.388Z,98471.03
2022-09-18T12:48:31.980Z,98473.59
2022-09-18T12:51:38.923Z,98466.78
2022-09-18T12:54:06.710Z,98466.44
2022-09-18T12:56:42.540Z,98455.13
2022-09-18T12:59:22.169Z,98446.75
2022-09-18T13:02:02.641Z,98453.78
2022-09-18T13:04:33.421Z,98439.25
2022-09-18T13:07:25.824Z,98431.31
2022-09-18T13:10:01.867Z,98427.28
2022-09-18T13:12:51.582Z,98433.13
2022-09-18T13:15:25.664Z,98426.69
2022-09-18T13:18:17.103Z,98424.38
2022-09-18T13:20:46.044Z,98415.50
2022-09-18T13:23:20.857Z,98413.28
2022-09-18T13:25:51.600Z,98416.94
2022-09-18T13:28:21.964Z,98411.16
2022-09-18T13:31:14.513Z,98413.75
2022-09-18T13:34:06.653Z,98402.09
2022-09-18T13:36:38.674Z,98398.78
2022-09-18T13:39:20.350Z,98398.72
2022-09-18T13:41:51.297Z,98403.91
2022-09-18T13:44:21.352Z,98397.81
2022-09-18T13:46:50.382Z,98402.59
2022-09-18T13:49:25.064Z,98389.19
2022-09-18T13:51:56.640Z,98391.03
2022-09-18T13:54:28.056Z,98393.44
2022-09-18T13:57:04.957Z,98386.47
2022-09-18T13:59:58.417Z,98384.88
2022-09-18T14:02:29.777Z,98375.97
2022-09-18T14:05:05.400Z,98372.53
2022-09-18T14:07:32.060Z,98370.78
2022-09-18T14:10:04.345Z,98376.16
2022-09-18T14:12:35.555Z,98374.63
2022-09-18T14:15:16.356Z,98365.22
2022-09-18T14:18:07.814Z,98362.75
2022-09-18T14:20:35.103Z,98355.56
2022-09-18T14:23:45.967Z,98371.75
2022-09-18T14:26:31.013Z,98351.34
2022-09-18T14:29:19.677Z,98355.34
2022-09-18T14:31:49.278Z,98354.94
2022-09-18T14:34:34.744Z,98341.72
2022-09-18T14:37:20.343Z,98339.78
2022-09-18T14:39:47.417Z,98329.31
2022-09-18T14:42:33.891Z,98332.13
2022-09-18T14:45:12.937Z,98315.59
2022-09-18T14:47:41.892Z,98322.31
2022-09-18T14:50:27.295Z,98329.03
2022-09-18T14:52:55.389Z,98323.88
2022-09-18T14:55:33.729Z,98319.59
2022-09-18T14:58:07.361Z,98310.00
2022-09-18T15:00:36.506Z,98317.66
2022-09-18T15:03:20.445Z,98321.88
2022-09-18T15:05:51.273Z,98320.81
2022-09-18T15:08:26.639Z,98314.28
2022-09-18T15:10:57.845Z,98311.59
2022-09-18T15:13:24.806Z,98300.09
2022-09-18T15:16:01.392Z,98295.03
2022-09-18T15:18:29.470Z,98300.66
2022-09-18T15:20:59.275Z,98310.53
2022-09-18T15:23:27.493Z,98299.81
2022-09-18T15:25:57.414Z,98315.84
2022-09-18T15:28:26.132Z,98319.69
2022-09-18T15:30:58.057Z,98312.34
2022-09-18T15:33:27.314Z,98324.09
2022-09-18T15:35:55.708Z,98332.34
2022-09-18T15:38:32.910Z,98322.28
2022-09-18T15:41:41.303Z,98311.72
2022-09-18T15:44:39.060Z,98320.03
2022-09-18T15:47:29.234Z,98318.56
2022-09-18T15:49:56.866Z,98320.03
2022-09-18T15:52:42.104Z,98329.91
2022-09-18T15:55:19.192Z,98316.50
2022-09-18T15:57:55.132Z,98320.94
2022-09-18T16:00:24.928Z,98322.56
2022-09-18T16:02:57.975Z,98329.84
2022-09-18T16:05:26.698Z,98330.97
2022-09-18T16:07:59.432Z,98314.56
2022-09-18T16:10:35.331Z,98337.63
2022-09-18T16:13:25.866Z,98327.16
2022-09-18T16:16:07.906Z,98333.38
2022-09-18T16:18:49.444Z,98322.34
2022-09-18T16:21:19.277Z,98325.22
2022-09-18T16:23:50.631Z,98325.75
2022-09-18T16:26:30.767Z,98332.97
2022-09-18T16:29:02.302Z,98330.63
2022-09-18T16:31:31.988Z,98333.56
2022-09-18T16:34:03.723Z,98336.63
2022-09-18T16:36:38.894Z,98331.47
2022-09-18T16:39:08.606Z,98331.53
2022-09-18T16:41:35.979Z,98330.19
2022-09-18T16:44:04.293Z,98325.66
2022-09-18T16:46:45.852Z,98323.16
2022-09-18T16:49:18.022Z,98323.91
2022-09-18T16:51:44.826Z,98325.47
2022-09-18T16:54:11.559Z,98322.09
2022-09-18T16:56:43.037Z,98327.34
2022-09-18T16:59:10.353Z,98324.06
2022-09-18T17:01:54.126Z,98318.31
2022-09-18T17:04:27.009Z,98319.13
2022-09-18T17:06:54.032Z,98331.84
2022-09-18T17:09:23.951Z,98333.34
2022-09-18T17:11:51.786Z,98333.19
2022-09-18T17:14:18.589Z,98340.41
2022-09-18T17:16:45.363Z,98330.69
2022-09-18T17:19:13.273Z,98337.34
2022-09-18T17:21:40.513Z,98339.63
2022-09-18T17:24:08.105Z,98333.94
2022-09-18T17:26:36.330Z,98334.56
2022-09-18T17:29:04.283Z,98331.84
2022-09-18T17:31:31.122Z,98332.81
2022-09-18T17:33:57.981Z,98337.59
2022-09-18T17:36:24.841Z,98332.59
2022-09-18T17:38:51.831Z,98331.91
2022-09-18T17:41:19.510Z,98333.81
2022-09-18T17:43:52.221Z,98345.75
2022-09-18T17:46:19.251Z,98345.41
2022-09-18T17:48:46.015Z,98341.66
2022-09-18T17:51:16.628Z,98349.03
2022-09-18T17:53:45.225Z,98350.72
2022-09-18T17:56:14.914Z,98346.06
2022-09-18T17:58:43.995Z,98344.75
2022-09-18T18:01:11.943Z,98344.31
2022-09-18T18:03:39.289Z,98346.34
2022-09-18T18:06:06.230Z,98356.53
2022-09-18T18:08:33.197Z,98365.25
2022-09-18T18:11:08.964Z,98354.50
2022-09-18T18:13:37.279Z,98347.06
2022-09-18T18:16:15.435Z,98346.22
2022-09-18T18:18:43.219Z,98339.16
2022-09-18T18:21:11.074Z,98356.97
2022-09-18T18:23:38.434Z,98365.19
2022-09-18T18:26:07.328Z,98366.41
2022-09-18T18:28:35.461Z,98361.72
2022-09-18T18:31:05.486Z,98369.09
2022-09-18T18:33:36.169Z,98366.28
2022-09-18T18:36:24.482Z,98373.84
2022-09-18T18:38:53.598Z,98375.00
2022-09-18T18:41:22.168Z,98383.63
2022-09-18T18:43:55.337Z,98384.25
2022-09-18T18:46:28.485Z,98384.34
2022-09-18T18:49:02.845Z,98384.25
2022-09-18T18:51:32.821Z,98392.06
2022-09-18T18:54:02.724Z,98388.25
2022-09-18T18:56:32.265Z,98383.22
2022-09-18T18:59:01.424Z,98391.81
2022-09-18T19:01:29.759Z,98383.16
2022-09-18T19:03:59.908Z,98403.50
2022-09-18T19:06:27.100Z,98398.22
2022-09-18T19:08:59.397Z,98406.63
2022-09-18T19:11:26.985Z,98410.94
2022-09-18T19:13:56.727Z,98408.59
2022-09-18T19:16:25.560Z,98407.03
2022-09-18T19:18:59.592Z,98411.13
2022-09-18T19:21:28.059Z,98407.00
2022-09-18T19:23:58.898Z,98414.53
2022-09-18T19:26:28.029Z,98406.16
2022-09-18T19:28:57.140Z,98411.69
2022-09-18T19:31:24.932Z,98418.84
2022-09-18T19:33:52.505Z,98419.00
2022-09-18T19:36:24.845Z,98411.00
2022-09-18T19:38:52.567Z,98405.81
2022-09-18T19:41:38.976Z,98410.06
2022-09-18T19:44:12.665Z,98406.06
2022-09-18T19:46:40.013Z,98410.78
2022-09-18T19:49:15.477Z,98404.38
2022-09-18T19:51:42.133Z,98403.78
2022-09-18T19:54:08.818Z,98408.34
2022-09-18T19:56:43.046Z,98412.34
2022-09-18T19:59:10.373Z,98409.41
2022-09-18T20:01:37.238Z,98412.63
2022-09-18T20:04:04.435Z,98409.47
2022-09-18T20:06:32.809Z,98413.06
2022-09-18T20:09:00.522Z,98413.94
2022-09-18T20:11:27.213Z,98414.50
2022-09-18T20:13:53.902Z,98415.66
2022-09-18T20:16:21.148Z,98420.91
2022-09-18T20:18:48.716Z,98421.22
2022-09-18T20:21:17.756Z,98423.66
2022-09-18T20:23:44.923Z,98416.03
2022-09-18T20:26:14.902Z,98423.69
2022-09-18T20:28:42.278Z,98420.25
2022-09-18T20:31:11.633Z,98424.44
2022-09-18T20:33:38.424Z,98412.00
2022-09-18T20:36:07.759Z,98421.78
2022-09-18T20:38:36.935Z,98429.06
2022-09-18T20:41:07.221Z,98428.69
2022-09-18T20:43:36.305Z,98425.22
2022-09-18T20:46:05.345Z,98436.84
2022-09-18T20:48:39.224Z,98426.75
2022-09-18T20:51:09.005Z,98426.63
2022-09-18T20:53:40.958Z,98437.88
2022-09-18T20:56:09.348Z,98444.13
2022-09-18T20:58:39.426Z,98440.47
2022-09-18T21:01:11.192Z,98436.22
2022-09-18T21:03:43.329Z,98441.59
2022-09-18T21:06:23.317Z,98448.44
2022-09-18T21:08:53.484Z,98454.53
2022-09-18T21:11:26.322Z,98464.81
2022-09-18T21:13:55.765Z,98457.72
2022-09-18T21:16:25.910Z,98459.25
2022-09-18T21:18:55.679Z,98462.19
2022-09-18T21:21:22.999Z,98472.81
2022-09-18T21:24:01.255Z,98487.09
2022-09-18T21:26:48.681Z,98490.50
2022-09-18T21:29:20.614Z,98501.84
2022-09-18T21:31:51.468Z,98504.09
2022-09-18T21:34:23.750Z,98498.34
2022-09-18T21:36:51.998Z,98501.31
2022-09-18T21:39:18.686Z,98496.50
2022-09-18T21:41:48.322Z,98496.69
2022-09-18T21:44:17.796Z,98497.44
2022-09-18T21:46:47.828Z,98487.75
2022-09-18T21:49:16.238Z,98488.50
2022-09-18T21:51:43.737Z,98498.34
2022-09-18T21:54:19.108Z,98499.91
2022-09-18T21:56:49.198Z,98510.78
2022-09-18T21:59:15.932Z,98520.66
2022-09-18T22:01:43.304Z,98530.69
2022-09-18T22:04:11.045Z,98533.19
2022-09-18T22:06:41.624Z,98537.50
2022-09-18T22:09:14.383Z,98536.03
2022-09-18T22:11:42.633Z,98523.59
2022-09-18T22:14:12.823Z,98534.56
2022-09-18T22:16:40.169Z,98526.59
2022-09-18T22:19:10.270Z,98529.25
2022-09-18T22:21:39.780Z,98525.56
2022-09-18T22:24:12.126Z,98540.56
2022-09-18T22:26:45.322Z,98530.69
2022-09-18T22:29:21.109Z,98534.38
2022-09-18T22:31:49.274Z,98527.66
2022-09-18T22:34:20.488Z,98531.03
2022-09-18T22:36:48.155Z,98532.66
2022-09-18T22:39:16.286Z,98534.69
2022-09-18T22:41:43.469Z,98532.31
2022-09-18T22:44:11.049Z,98529.91
2022-09-18T22:46:39.807Z,98532.56
2022-09-18T22:49:08.694Z,98536.13
2022-09-18T22:51:35.479Z,98536.22
2022-09-18T22:54:07.430Z,98545.56
2022-09-18T22:56:38.795Z,98558.19
2022-09-18T22:59:05.594Z,98559.25
2022-09-18T23:01:34.069Z,98563.78
2022-09-18T23:04:05.210Z,98562.47
2022-09-18T23:06:33.549Z,98560.72
2022-09-18T23:09:00.848Z,98560.88
2022-09-18T23:11:30.253Z,98555.09
2022-09-18T23:14:04.362Z,98558.81
2022-09-18T23:16:33.568Z,98560.59
2022-09-18T23:19:03.754Z,98562.50
2022-09-18T23:21:32.495Z,98567.94
2022-09-18T23:24:01.458Z,98570.03
2022-09-18T23:26:30.871Z,98566.41
2022-09-18T23:28:58.998Z,98578.09
2022-09-18T23:31:31.337Z,98582.53
2022-09-18T23:34:00.371Z,98577.22
2022-09-18T23:36:35.886Z,98574.88
2022-09-18T23:39:24.662Z,98587.28
2022-09-18T23:41:51.935Z,98582.88
2022-09-18T23:44:20.919Z,98594.59
2022-09-18T23:46:48.070Z,98595.63
2022-09-18T23:49:15.835Z,98598.28
2022-09-18T23:51:46.116Z,98594.00
2022-09-18T23:54:18.578Z,98598.59
2022-09-18T23:56:45.866Z,98597.72
2022-09-18T23:59:14.265Z,98603.09
